createdAt,value
2022-10-05T00:01:05.772Z,88.20
2022-10-05T00:03:40.375Z,88.50
2022-10-05T00:06:09.452Z,88.60
2022-10-05T00:08:36.150Z,88.60
2022-10-05T00:11:02.856Z,88.40
2022-10-05T00:13:30.624Z,88.30
2022-10-05T00:16:17.820Z,88.40
2022-10-05T00:18:46.929Z,88.30
2022-10-05T00:21:18.392Z,88.30
2022-10-05T00:23:45.014Z,88.30
2022-10-05T00:26:13.906Z,88.30
2022-10-05T00:28:42.779Z,88.40
2022-10-05T00:31:17.951Z,88.30
2022-10-05T00:33:44.964Z,88.10
2022-10-05T00:36:11.583Z,88.20
2022-10-05T00:38:39.655Z,88.30
2022-10-05T00:41:12.797Z,88.30
2022-10-05T00:43:52.880Z,88.80
2022-10-05T00:46:19.502Z,88.60
2022-10-05T00:48:53.803Z,88.60
2022-10-05T00:51:23.940Z,88.90
2022-10-05T00:54:06.481Z,88.80
2022-10-05T00:56:46.713Z,88.80
2022-10-05T00:59:13.629Z,88.60
2022-10-05T01:01:43.437Z,88.60
2022-10-05T01:04:28.947Z,88.70
2022-10-05T01:07:16.487Z,88.50
2022-10-05T01:09:49.083Z,88.70
2022-10-05T01:12:22.710Z,88.70
2022-10-05T01:14:57.557Z,88.90
2022-10-05T01:17:37.798Z,88.80
2022-10-05T01:20:25.781Z,88.90
2022-10-05T01:23:11.426Z,88.90
2022-10-05T01:25:49.109Z,88.80
2022-10-05T01:28:16.986Z,88.90
2022-10-05T01:30:47.891Z,89.10
2022-10-05T01:33:14.504Z,89.20
2022-10-05T01:35:59.800Z,89.30
2022-10-05T01:38:35.848Z,89.40
2022-10-05T01:41:11.919Z,89.40
2022-10-05T01:43:49.331Z,89.70
2022-10-05T01:46:38.196Z,89.80
2022-10-05T01:49:04.852Z,90.30
2022-10-05T01:51:40.323Z,90.20
2022-10-05T01:54:13.037Z,89.90
2022-10-05T01:56:43.345Z,89.90
2022-10-05T01:59:28.962Z,89.70
2022-10-05T02:01:55.690Z,89.90
2022-10-05T02:04:56.425Z,90.00
2022-10-05T02:07:13.835Z,89.80
2022-10-05T02:09:46.733Z,89.70
2022-10-05T02:12:15.693Z,89.60
2022-10-05T02:14:43.740Z,89.50
2022-10-05T02:17:14.920Z,90.10
2022-10-05T02:19:43.003Z,89.80
2022-10-05T02:22:14.679Z,90.00
2022-10-05T02:24:45.404Z,90.30
2022-10-05T02:27:14.639Z,90.10
2022-10-05T02:29:42.723Z,90.20
2022-10-05T02:32:23.933Z,90.10
2022-10-05T02:34:50.670Z,89.90
2022-10-05T02:37:36.101Z,90.10
2022-10-05T02:40:21.607Z,90.20
2022-10-05T02:42:52.209Z,90.30
2022-10-05T02:45:25.146Z,90.50
2022-10-05T02:47:54.772Z,90.10
2022-10-05T02:50:27.070Z,90.20
2022-10-05T02:53:01.724Z,90.40
2022-10-05T02:55:34.730Z,90.60
2022-10-05T02:58:20.990Z,90.90
2022-10-05T03:01:08.382Z,91.50
2022-10-05T03:03:40.467Z,91.50
2022-10-05T03:06:20.132Z,91.40
2022-10-05T03:08:58.717Z,91.20
2022-10-05T03:11:30.415Z,91.40
2022-10-05T03:14:12.370Z,91.70
2022-10-05T03:16:57.767Z,91.30
2022-10-05T03:19:47.447Z,91.30
2022-10-05T03:22:32.866Z,91.30
2022-10-05T03:25:32.800Z,91.60
2022-10-05T03:28:02.401Z,91.70
2022-10-05T03:30:33.682Z,92.00
2022-10-05T03:33:09.643Z,92.00
2022-10-05T03:35:39.449Z,92.10
2022-10-05T03:38:24.805Z,91.90
2022-10-05T03:40:55.873Z,91.90
2022-10-05T03:43:22.448Z,92.20
2022-10-05T03:46:00.502Z,91.80
2022-10-05T03:48:37.493Z,92.20
2022-10-05T03:51:12.937Z,92.20
2022-10-05T03:53:44.685Z,92.00
2022-10-05T03:56:31.609Z,92.10
2022-10-05T03:59:00.858Z,91.80
2022-10-05T04:01:34.745Z,92.00
2022-10-05T04:04:04.137Z,91.80
2022-10-05T04:06:34.518Z,91.90
2022-10-05T04:09:13.233Z,92.00
2022-10-05T04:11:46.725Z,92.20
2022-10-05T04:14:15.827Z,92.20
2022-10-05T04:16:52.481Z,92.20
2022-10-05T04:19:25.682Z,92.20
2022-10-05T04:21:57.742Z,92.20
2022-10-05T04:24:27.586Z,92.00
2022-10-05T04:27:03.331Z,92.00
2022-10-05T04:29:33.733Z,92.10
2022-10-05T04:32:23.307Z,92.00
2022-10-05T04:34:57.020Z,91.80
2022-10-05T04:37:42.097Z,91.60
2022-10-05T04:40:14.278Z,91.70
2022-10-05T04:42:51.779Z,91.70
2022-10-05T04:45:27.320Z,91.70
2022-10-05T04:47:59.812Z,91.50
2022-10-05T04:50:45.408Z,91.40
2022-10-05T04:53:42.576Z,91.30
2022-10-05T04:56:16.116Z,91.10
2022-10-05T04:58:42.805Z,90.90
2022-10-05T05:01:12.236Z,91.10
2022-10-05T05:03:41.847Z,91.10
2022-10-05T05:06:18.499Z,91.00
2022-10-05T05:09:04.071Z,90.80
2022-10-05T05:11:37.151Z,90.90
2022-10-05T05:14:19.507Z,90.80
2022-10-05T05:16:51.676Z,90.80
2022-10-05T05:19:18.395Z,90.70
2022-10-05T05:21:58.136Z,90.80
2022-10-05T05:24:27.614Z,90.70
2022-10-05T05:27:13.140Z,90.60
2022-10-05T05:29:50.463Z,90.90
2022-10-05T05:32:35.062Z,90.90
2022-10-05T05:35:04.669Z,91.00
2022-10-05T05:37:48.412Z,91.40
2022-10-05T05:40:23.409Z,91.50
2022-10-05T05:43:00.358Z,91.50
2022-10-05T05:45:33.368Z,91.50
2022-10-05T05:48:03.037Z,91.70
2022-10-05T05:50:47.859Z,91.60
2022-10-05T05:53:21.130Z,91.60
2022-10-05T05:55:56.090Z,91.60
2022-10-05T05:58:27.447Z,91.70
2022-10-05T06:00:57.405Z,91.70
2022-10-05T06:03:36.001Z,91.70
2022-10-05T06:06:05.062Z,91.90
2022-10-05T06:08:52.046Z,92.00
2022-10-05T06:11:24.333Z,92.20
2022-10-05T06:13:51.337Z,92.30
2022-10-05T06:16:18.830Z,92.40
2022-10-05T06:18:52.049Z,92.40
2022-10-05T06:21:22.686Z,92.60
2022-10-05T06:23:56.975Z,92.70
2022-10-05T06:26:30.825Z,92.80
2022-10-05T06:29:14.566Z,92.80
2022-10-05T06:31:59.978Z,92.90
2022-10-05T06:34:35.646Z,92.90
2022-10-05T06:37:04.794Z,93.00
2022-10-05T06:39:31.499Z,93.10
2022-10-05T06:42:17.076Z,93.30
2022-10-05T06:44:49.140Z,93.60
2022-10-05T06:47:27.955Z,93.80
2022-10-05T06:50:04.236Z,94.10
2022-10-05T06:52:57.655Z,94.30
2022-10-05T06:55:24.305Z,94.60
2022-10-05T06:58:09.811Z,94.80
2022-10-05T07:00:39.606Z,95.00
2022-10-05T07:03:12.407Z,95.10
2022-10-05T07:05:45.190Z,95.20
2022-10-05T07:08:15.437Z,95.30
2022-10-05T07:11:11.704Z,95.40
2022-10-05T07:13:38.289Z,95.40
2022-10-05T07:16:24.105Z,95.40
2022-10-05T07:18:59.254Z,95.40
2022-10-05T07:21:26.155Z,95.20
2022-10-05T07:23:53.219Z,95.00
2022-10-05T07:26:22.735Z,94.80
2022-10-05T07:29:10.686Z,94.30
2022-10-05T07:31:53.137Z,94.00
2022-10-05T07:34:26.459Z,93.70
2022-10-05T07:37:18.015Z,93.20
2022-10-05T07:40:00.920Z,93.20
2022-10-05T07:42:51.786Z,93.00
2022-10-05T07:45:29.721Z,92.90
2022-10-05T07:47:57.684Z,92.20
2022-10-05T07:50:42.956Z,92.10
2022-10-05T07:53:17.100Z,91.80
2022-10-05T07:55:47.283Z,91.50
2022-10-05T07:58:20.818Z,90.80
2022-10-05T08:00:56.218Z,90.00
2022-10-05T08:03:28.916Z,89.30
2022-10-05T08:05:57.796Z,88.70
2022-10-05T08:08:37.363Z,87.80
2022-10-05T08:11:09.856Z,87.70
2022-10-05T08:13:36.479Z,87.20
2022-10-05T08:16:05.047Z,86.40
2022-10-05T08:18:37.428Z,86.30
2022-10-05T08:21:14.516Z,84.30
2022-10-05T08:24:01.850Z,84.60
2022-10-05T08:26:31.519Z,84.40
2022-10-05T08:29:16.455Z,83.80
2022-10-05T08:31:46.320Z,82.60
2022-10-05T08:34:13.049Z,82.00
2022-10-05T08:40:11.632Z,80.80
2022-10-05T08:42:48.232Z,79.60
2022-10-05T08:45:41.534Z,80.00
2022-10-05T08:48:29.945Z,78.90
2022-10-05T08:51:11.702Z,79.10
2022-10-05T08:54:03.735Z,78.90
2022-10-05T08:56:30.675Z,77.60
2022-10-05T08:59:00.041Z,77.20
2022-10-05T09:01:33.855Z,77.80
2022-10-05T09:04:04.745Z,76.00
2022-10-05T09:06:43.783Z,76.10
2022-10-05T09:09:25.782Z,75.60
2022-10-05T09:12:20.049Z,75.30
2022-10-05T09:15:24.983Z,74.80
2022-10-05T09:18:03.950Z,74.00
2022-10-05T09:20:43.044Z,74.80
2022-10-05T09:23:18.516Z,75.20
2022-10-05T09:25:59.882Z,75.40
2022-10-05T09:28:29.908Z,75.00
2022-10-05T09:31:15.388Z,74.50
2022-10-05T09:34:10.747Z,73.90
2022-10-05T09:36:56.468Z,72.00
2022-10-05T09:39:41.868Z,71.40
2022-10-05T09:42:21.552Z,71.60
2022-10-05T09:45:08.502Z,73.00
2022-10-05T09:47:53.553Z,73.90
2022-10-05T09:50:40.037Z,73.50
2022-10-05T09:53:19.062Z,72.30
2022-10-05T09:55:52.270Z,72.30
2022-10-05T09:58:38.091Z,71.80
2022-10-05T10:01:33.253Z,69.60
2022-10-05T10:04:10.172Z,70.10
2022-10-05T10:06:43.688Z,69.70
2022-10-05T10:09:22.645Z,69.40
2022-10-05T10:11:49.598Z,69.80
2022-10-05T10:14:16.532Z,69.10
2022-10-05T10:16:59.603Z,67.60
2022-10-05T10:19:52.721Z,66.00
2022-10-05T10:22:42.218Z,66.10
2022-10-05T10:25:19.144Z,65.60
2022-10-05T10:27:55.153Z,64.90
2022-10-05T10:30:36.422Z,63.70
2022-10-05T10:33:22.138Z,65.30
2022-10-05T10:36:00.495Z,65.30
2022-10-05T10:38:32.096Z,65.30
2022-10-05T10:41:05.892Z,64.40
2022-10-05T10:43:39.270Z,64.30
2022-10-05T10:46:24.795Z,64.90
2022-10-05T10:49:16.878Z,64.90
2022-10-05T10:51:52.808Z,64.10
2022-10-05T10:54:28.581Z,62.90
2022-10-05T10:57:15.360Z,62.80
2022-10-05T10:59:44.943Z,61.50
2022-10-05T11:02:30.658Z,61.00
2022-10-05T11:05:15.267Z,60.80
2022-10-05T11:07:44.913Z,61.50
2022-10-05T11:10:14.309Z,62.80
2022-10-05T11:12:47.662Z,61.60
2022-10-05T11:15:33.819Z,61.70
2022-10-05T11:18:12.424Z,61.60
2022-10-05T11:20:53.873Z,60.00
2022-10-05T11:23:38.970Z,59.30
2022-10-05T11:26:17.864Z,59.10
2022-10-05T11:28:56.106Z,59.90
2022-10-05T11:31:35.433Z,61.30
2022-10-05T11:34:08.106Z,61.50
2022-10-05T11:36:42.243Z,61.50
2022-10-05T11:39:28.774Z,60.60
2022-10-05T11:42:04.322Z,61.60
2022-10-05T11:44:57.570Z,58.40
2022-10-05T11:47:32.118Z,58.10
2022-10-05T11:50:06.768Z,57.00
2022-10-05T11:52:36.230Z,56.90
2022-10-05T11:55:14.737Z,55.10
2022-10-05T11:57:57.759Z,55.80
2022-10-05T12:00:24.356Z,57.00
2022-10-05T12:02:55.272Z,56.60
2022-10-05T12:05:22.068Z,55.20
2022-10-05T12:08:08.712Z,56.00
2022-10-05T12:10:54.184Z,57.40
2022-10-05T12:13:36.138Z,57.50
2022-10-05T12:16:07.490Z,55.10
2022-10-05T12:18:39.119Z,55.50
2022-10-05T12:21:11.059Z,54.40
2022-10-05T12:23:41.493Z,53.70
2022-10-05T12:26:11.892Z,53.80
2022-10-05T12:28:44.988Z,55.70
2022-10-05T12:31:26.622Z,55.20
2022-10-05T12:33:57.469Z,54.60
2022-10-05T12:37:03.679Z,53.90
2022-10-05T12:39:37.492Z,54.70
2022-10-05T12:42:41.482Z,54.70
2022-10-05T12:45:31.921Z,54.30
2022-10-05T12:48:19.433Z,54.40
2022-10-05T12:50:49.445Z,54.50
2022-10-05T12:53:34.616Z,55.50
2022-10-05T12:56:09.419Z,52.90
2022-10-05T12:58:51.375Z,54.00
2022-10-05T13:01:20.305Z,53.80
2022-10-05T13:03:52.628Z,54.10
2022-10-05T13:06:29.436Z,53.70
2022-10-05T13:09:00.926Z,54.00
2022-10-05T13:11:31.749Z,53.40
2022-10-05T13:14:19.149Z,54.80
2022-10-05T13:16:54.752Z,55.30
2022-10-05T13:19:40.808Z,55.10
2022-10-05T13:22:16.699Z,55.80
2022-10-05T13:24:43.280Z,55.50
2022-10-05T13:27:22.555Z,56.40
2022-10-05T13:29:54.477Z,57.70
2022-10-05T13:32:24.080Z,59.70
2022-10-05T13:35:11.629Z,61.50
2022-10-05T13:37:48.655Z,61.60
2022-10-05T13:40:32.049Z,59.40
2022-10-05T13:43:14.540Z,58.60
2022-10-05T13:45:45.025Z,58.50
2022-10-05T13:48:18.656Z,59.00
2022-10-05T13:51:09.755Z,60.90
2022-10-05T13:53:39.361Z,58.40
2022-10-05T13:56:10.643Z,58.60
2022-10-05T13:58:37.271Z,57.50
2022-10-05T14:01:28.618Z,57.50
2022-10-05T14:04:16.100Z,59.40
2022-10-05T14:06:44.713Z,59.00
2022-10-05T14:09:20.404Z,60.70
2022-10-05T14:11:52.084Z,62.60
2022-10-05T14:14:31.566Z,63.80
2022-10-05T14:19:40.954Z,63.50
2022-10-05T14:22:24.329Z,64.20
2022-10-05T14:24:54.471Z,63.40
2022-10-05T14:27:33.543Z,64.00
2022-10-05T14:30:19.985Z,65.30
2022-10-05T14:32:52.244Z,65.80
2022-10-05T14:35:24.218Z,66.60
2022-10-05T14:37:53.654Z,64.70
2022-10-05T14:40:31.190Z,65.00
2022-10-05T14:42:59.698Z,65.60
2022-10-05T14:45:29.939Z,66.50
2022-10-05T14:48:00.233Z,66.30
2022-10-05T14:50:29.695Z,66.30
2022-10-05T14:53:14.385Z,67.10
2022-10-05T14:55:42.646Z,67.00
2022-10-05T14:58:28.076Z,67.10
2022-10-05T15:01:18.184Z,67.40
2022-10-05T15:04:00.433Z,67.40
2022-10-05T15:06:33.015Z,67.50
2022-10-05T15:09:18.057Z,67.80
2022-10-05T15:11:44.779Z,68.40
2022-10-05T15:14:29.817Z,69.10
2022-10-05T15:16:58.996Z,68.90
2022-10-05T15:19:47.138Z,68.80
2022-10-05T15:22:31.746Z,68.90
2022-10-05T15:25:16.636Z,69.10
2022-10-05T15:28:07.323Z,70.00
2022-10-05T15:30:36.376Z,70.70
2022-10-05T15:33:09.661Z,71.00
2022-10-05T15:35:48.022Z,71.60
2022-10-05T15:38:20.960Z,71.80
2022-10-05T15:40:47.902Z,71.50
2022-10-05T15:43:21.716Z,72.10
2022-10-05T15:45:54.754Z,73.20
2022-10-05T15:48:25.656Z,74.10
2022-10-05T15:50:57.965Z,74.40
2022-10-05T15:53:34.504Z,74.20
2022-10-05T15:56:15.926Z,74.70
2022-10-05T15:59:01.417Z,75.40
2022-10-05T16:01:43.141Z,76.00
2022-10-05T16:04:23.041Z,75.60
2022-10-05T16:07:10.076Z,76.20
2022-10-05T16:09:42.380Z,76.50
2022-10-05T16:12:13.578Z,76.20
2022-10-05T16:14:54.617Z,76.60
2022-10-05T16:17:29.007Z,76.80
2022-10-05T16:20:15.120Z,76.30
2022-10-05T16:23:01.552Z,77.20
2022-10-05T16:25:31.150Z,77.20
2022-10-05T16:28:05.639Z,78.00
2022-10-05T16:30:49.056Z,78.20
2022-10-05T16:33:23.757Z,78.50
2022-10-05T16:36:05.551Z,78.90
2022-10-05T16:38:35.056Z,79.50
2022-10-05T16:41:13.101Z,80.30
2022-10-05T16:43:49.399Z,80.10
2022-10-05T16:46:32.045Z,79.90
2022-10-05T16:49:25.471Z,80.00
2022-10-05T16:52:02.076Z,81.10
2022-10-05T16:54:29.045Z,81.10
2022-10-05T16:57:31.603Z,80.90
2022-10-05T17:00:04.535Z,82.00
2022-10-05T17:02:58.819Z,81.50
2022-10-05T17:05:42.069Z,81.90
2022-10-05T17:08:08.963Z,81.50
2022-10-05T17:10:55.652Z,82.50
2022-10-05T17:13:31.469Z,82.50
2022-10-05T17:16:24.426Z,82.70
2022-10-05T17:18:56.887Z,82.50
2022-10-05T17:21:30.946Z,82.80
2022-10-05T17:24:12.621Z,83.10
2022-10-05T17:26:46.453Z,82.90
2022-10-05T17:29:25.139Z,83.10
2022-10-05T17:32:11.373Z,83.30
2022-10-05T17:35:00.850Z,83.20
2022-10-05T17:37:27.467Z,83.00
2022-10-05T17:39:55.738Z,83.40
2022-10-05T17:42:32.090Z,83.30
2022-10-05T17:45:12.173Z,83.50
2022-10-05T17:47:59.573Z,83.20
2022-10-05T17:51:04.514Z,83.50
2022-10-05T17:53:52.809Z,83.60
2022-10-05T17:56:20.190Z,83.90
2022-10-05T17:58:46.928Z,84.20
2022-10-05T18:01:17.036Z,84.40
2022-10-05T18:03:46.191Z,84.70
2022-10-05T18:06:36.187Z,84.40
2022-10-05T18:09:22.963Z,84.30
2022-10-05T18:12:08.598Z,84.20
2022-10-05T18:14:57.209Z,84.20
2022-10-05T18:17:36.140Z,84.30
2022-10-05T18:20:13.303Z,85.00
2022-10-05T18:22:40.059Z,84.60
2022-10-05T18:25:18.847Z,85.00
2022-10-05T18:28:00.864Z,85.20
2022-10-05T18:30:32.642Z,85.10
2022-10-05T18:33:08.208Z,85.10
2022-10-05T18:36:02.387Z,85.50
2022-10-05T18:38:48.665Z,84.90
2022-10-05T18:41:35.648Z,85.50
2022-10-05T18:44:19.151Z,85.40
2022-10-05T18:47:23.381Z,85.30
2022-10-05T18:50:02.701Z,85.80
2022-10-05T18:52:32.500Z,85.80
2022-10-05T18:55:05.182Z,85.70
2022-10-05T18:57:44.155Z,86.10
2022-10-05T19:00:13.802Z,86.00
2022-10-05T19:02:42.955Z,85.90
2022-10-05T19:05:45.881Z,85.80
2022-10-05T19:08:13.857Z,86.10
2022-10-05T19:10:45.057Z,86.20
2022-10-05T19:13:29.549Z,86.30
2022-10-05T19:15:57.804Z,86.20
2022-10-05T19:18:24.891Z,86.10
2022-10-05T19:21:12.797Z,86.20
2022-10-05T19:23:48.763Z,86.50
2022-10-05T19:26:20.458Z,86.70
2022-10-05T19:28:48.428Z,86.30
2022-10-05T19:31:16.978Z,86.40
2022-10-05T19:33:57.622Z,86.60
2022-10-05T19:36:35.407Z,86.90
2022-10-05T19:39:11.229Z,86.70
2022-10-05T19:41:47.524Z,87.00
2022-10-05T19:44:32.999Z,87.10
2022-10-05T19:47:06.888Z,87.10
2022-10-05T19:49:37.724Z,87.20
2022-10-05T19:52:08.989Z,87.20
2022-10-05T19:54:41.781Z,87.10
2022-10-05T19:57:17.079Z,87.10
2022-10-05T19:59:47.734Z,86.90
2022-10-05T20:02:15.506Z,86.70
2022-10-05T20:04:44.869Z,87.30
2022-10-05T20:07:17.691Z,87.30
2022-10-05T20:09:59.400Z,87.60
2022-10-05T20:12:52.548Z,87.30
2022-10-05T20:15:42.914Z,87.20
2022-10-05T20:18:55.513Z,87.20
2022-10-05T20:21:40.776Z,87.10
2022-10-05T20:24:21.121Z,87.50
2022-10-05T20:27:12.631Z,87.60
2022-10-05T20:29:44.502Z,87.50
2022-10-05T20:32:12.291Z,87.90
2022-10-05T20:34:41.368Z,87.70
2022-10-05T20:37:08.861Z,88.00
2022-10-05T20:39:35.632Z,88.00
2022-10-05T20:42:02.293Z,88.00
2022-10-05T20:44:30.231Z,88.10
2022-10-05T20:46:58.410Z,87.80
2022-10-05T20:49:26.410Z,87.40
2022-10-05T20:51:55.618Z,87.40
2022-10-05T20:54:22.802Z,87.60
2022-10-05T20:56:50.257Z,87.70
2022-10-05T20:59:18.509Z,87.60
2022-10-05T21:01:47.920Z,87.70
2022-10-05T21:04:21.261Z,88.30
2022-10-05T21:06:47.908Z,87.80
2022-10-05T21:09:15.403Z,87.80
2022-10-05T21:11:42.649Z,88.00
2022-10-05T21:14:10.021Z,88.10
2022-10-05T21:16:38.275Z,88.10
2022-10-05T21:19:12.299Z,88.20
2022-10-05T21:21:40.126Z,88.50
2022-10-05T21:24:07.115Z,88.40
2022-10-05T21:26:34.915Z,88.40
2022-10-05T21:29:03.598Z,88.40
2022-10-05T21:31:30.487Z,88.40
2022-10-05T21:33:57.115Z,89.10
2022-10-05T21:36:25.036Z,88.70
2022-10-05T21:38:52.120Z,88.90
2022-10-05T21:41:19.078Z,89.40
2022-10-05T21:43:45.763Z,89.30
2022-10-05T21:46:18.488Z,89.70
2022-10-05T21:48:45.148Z,89.70
2022-10-05T21:51:15.150Z,90.30
2022-10-05T21:53:45.707Z,90.50
2022-10-05T21:56:14.213Z,90.80
2022-10-05T21:58:42.333Z,90.70
2022-10-05T22:01:09.209Z,91.00
2022-10-05T22:03:36.003Z,90.90
2022-10-05T22:06:04.242Z,91.40
2022-10-05T22:08:32.447Z,91.40
2022-10-05T22:11:00.144Z,91.40
2022-10-05T22:13:27.161Z,91.40
2022-10-05T22:15:57.775Z,91.40
2022-10-05T22:18:25.249Z,91.10
2022-10-05T22:20:53.243Z,90.80
2022-10-05T22:23:21.918Z,91.40
2022-10-05T22:25:48.683Z,91.20
2022-10-05T22:28:15.832Z,91.00
2022-10-05T22:30:44.591Z,90.80
2022-10-05T22:33:12.226Z,90.30
2022-10-05T22:35:39.216Z,90.30
2022-10-05T22:38:05.870Z,90.40
2022-10-05T22:40:32.527Z,90.60
2022-10-05T22:42:59.197Z,91.10
2022-10-05T22:45:30.313Z,91.30
2022-10-05T22:47:59.082Z,91.50
2022-10-05T22:50:27.733Z,91.60
2022-10-05T22:52:54.400Z,91.80
2022-10-05T22:55:21.046Z,92.20
2022-10-05T22:57:49.174Z,92.10
2022-10-05T23:00:16.145Z,92.10
2022-10-05T23:02:43.473Z,92.10
2022-10-05T23:05:13.200Z,92.00
2022-10-05T23:07:40.911Z,91.90
2022-10-05T23:10:09.121Z,91.90
2022-10-05T23:12:36.839Z,92.20
2022-10-05T23:15:03.892Z,92.10
2022-10-05T23:17:31.190Z,91.90
2022-10-05T23:19:57.916Z,91.70
2022-10-05T23:22:25.315Z,91.90
2022-10-05T23:24:52.353Z,91.60
2022-10-05T23:27:19.367Z,91.90
2022-10-05T23:29:46.059Z,91.80
2022-10-05T23:32:13.749Z,91.40
2022-10-05T23:34:40.546Z,91.40
2022-10-05T23:37:07.195Z,91.60
2022-10-05T23:39:34.833Z,91.60
2022-10-05T23:42:01.554Z,91.90
2022-10-05T23:44:28.177Z,91.60
2022-10-05T23:46:54.921Z,91.70
2022-10-05T23:49:23.120Z,91.50
2022-10-05T23:51:49.724Z,91.30
2022-10-05T23:54:16.346Z,91.20
2022-10-05T23:56:42.926Z,91.30
2022-10-05T23:59:09.571Z,91.00
